Time;durP1;ratioP1;P1;durP2;ratioP2;P2;SDS_P1;SDS_P2;PMS_P1;PMS_P2;Temp;Humidity;BMP_temperature;BMP_pressure;BME280_temperature;BME280_humidity;BME280_pressure;Samples;Min_cycle;Max_cycle;Signal;HPM_P1;HPM_P2
2022/08/30 00:01:21;;;;;;;0.50;0.50;;;;;;;20.64;41.31;101352.47;5107894;28;20050;-80
2022/08/30 00:03:53;;;;;;;0.95;0.95;;;;;;;20.62;41.89;101353.50;5122099;28;20042;-80
2022/08/30 00:06:27;;;;;;;0.85;0.75;;;;;;;20.60;41.68;101357.13;5122273;28;20595;-80
2022/08/30 00:08:58;;;;;;;0.88;0.88;;;;;;;20.62;41.46;101353.50;5124105;28;20031;-80
2022/08/30 00:11:29;;;;;;;0.30;0.30;;;;;;;20.59;41.48;101352.72;5155599;28;20107;-80
2022/08/30 00:13:59;;;;;;;0.20;0.20;;;;;;;20.62;41.33;101348.19;5143101;28;20034;-80
2022/08/30 00:16:30;;;;;;;0.30;0.30;;;;;;;20.62;41.27;101357.00;5153107;28;20081;-80
2022/08/30 00:19:01;;;;;;;0.35;0.35;;;;;;;20.63;41.54;101363.22;5160988;28;20034;-80
2022/08/30 00:21:31;;;;;;;1.00;1.00;;;;;;;20.59;41.55;101355.41;5105053;28;20031;-80
2022/08/30 00:24:05;;;;;;;0.22;0.22;;;;;;;20.62;41.59;101365.00;5156075;28;20034;-80
2022/08/30 00:26:35;;;;;;;0.32;0.32;;;;;;;20.60;41.68;101365.13;5131717;28;20031;-80
2022/08/30 00:29:09;;;;;;;0.30;0.30;;;;;;;20.60;41.50;101361.59;5122288;28;20023;-80
2022/08/30 00:31:39;;;;;;;0.60;0.60;;;;;;;20.54;41.87;101361.94;5118344;28;20605;-80
2022/08/30 00:34:10;;;;;;;0.45;0.45;;;;;;;20.55;41.82;101353.00;5151742;28;20030;-80
2022/08/30 00:36:41;;;;;;;0.47;0.47;;;;;;;20.56;41.62;101365.38;5151180;28;20104;-80
2022/08/30 00:39:12;;;;;;;0.45;0.45;;;;;;;20.55;41.71;101359.22;5108223;28;20027;-80
2022/08/30 00:41:43;;;;;;;0.55;0.55;;;;;;;20.55;41.89;101361.88;5115883;28;20433;-80
2022/08/30 00:44:14;;;;;;;0.30;0.30;;;;;;;20.52;42.36;101358.53;5125833;28;20066;-81
2022/08/30 00:46:44;;;;;;;0.30;0.30;;;;;;;20.50;42.14;101361.28;5154592;28;20086;-80
2022/08/30 00:49:15;;;;;;;0.50;0.50;;;;;;;20.48;42.30;101367.66;5127406;28;20039;-80
2022/08/30 00:51:46;;;;;;;1.02;1.00;;;;;;;20.49;42.58;101359.59;5139069;28;20074;-79
2022/08/30 00:54:18;;;;;;;0.32;0.32;;;;;;;20.48;42.26;101368.53;5148160;28;20626;-79
2022/08/30 00:56:49;;;;;;;0.32;0.32;;;;;;;20.45;43.26;101368.69;5140173;28;20047;-79
2022/08/30 00:59:20;;;;;;;0.65;0.65;;;;;;;20.44;42.79;101367.84;5152531;28;20035;-80
2022/08/30 01:01:52;;;;;;;2.13;1.80;;;;;;;20.48;42.41;101367.66;5151300;28;20039;-80
2022/08/30 01:04:25;;;;;;;2.47;0.52;;;;;;;20.47;42.55;101363.25;5121424;28;20100;-81
2022/08/30 01:06:56;;;;;;;0.93;0.85;;;;;;;20.44;42.75;101365.19;5148364;28;20037;-80
2022/08/30 01:09:27;;;;;;;0.57;0.57;;;;;;;20.42;43.33;101369.72;5137821;28;20038;-80
2022/08/30 01:11:57;;;;;;;0.45;0.40;;;;;;;20.48;42.39;101367.66;5148300;28;20066;-80
2022/08/30 01:14:32;;;;;;;0.47;0.47;;;;;;;20.47;42.73;101377.47;5137803;28;20031;-79
2022/08/30 01:17:04;;;;;;;0.20;0.20;;;;;;;20.47;42.64;101376.59;5157748;28;20113;-80
2022/08/30 01:19:54;;;;;;;0.22;0.22;;;;;;;20.51;43.21;101376.31;5106911;28;20050;-80
2022/08/30 01:22:38;;;;;;;0.75;0.75;;;;;;;20.42;43.08;101380.41;5137540;28;20050;-79
2022/08/30 01:25:10;;;;;;;0.40;0.40;;;;;;;20.39;42.93;101375.22;5123507;28;20061;-80
2022/08/30 01:27:47;;;;;;;0.30;0.30;;;;;;;20.41;43.06;101377.81;5156090;28;20038;-79
2022/08/30 01:30:17;;;;;;;0.30;0.30;;;;;;;20.38;44.19;101378.84;5154898;28;20038;-80
2022/08/30 01:32:50;;;;;;;0.28;0.28;;;;;;;20.30;43.90;101373.09;5137196;28;20042;-80
2022/08/30 01:35:21;;;;;;;0.85;0.65;;;;;;;20.32;43.30;101376.53;5137367;28;20042;-80
2022/08/30 01:37:51;;;;;;;0.40;0.40;;;;;;;20.32;43.41;101376.53;5107302;28;20035;-80
2022/08/30 01:40:22;;;;;;;0.45;0.45;;;;;;;20.33;43.21;101380.94;5137575;28;20035;-79
2022/08/30 01:42:52;;;;;;;0.68;0.68;;;;;;;20.33;43.35;101374.75;5125783;28;20038;-80
2022/08/30 01:45:23;;;;;;;0.30;0.30;;;;;;;20.31;43.33;101374.81;5150549;28;20144;-80
2022/08/30 01:47:53;;;;;;;1.30;0.80;;;;;;;20.31;43.18;101377.47;5155145;28;20475;-80
2022/08/30 01:50:24;;;;;;;0.35;0.35;;;;;;;20.30;43.34;101370.44;5136730;28;20039;-81
2022/08/30 01:52:55;;;;;;;0.47;0.47;;;;;;;20.27;42.92;101375.97;5153886;28;20039;-81
2022/08/30 01:55:25;;;;;;;0.28;0.28;;;;;;;20.16;44.22;101384.56;5105251;28;20058;-80
2022/08/30 01:57:56;;;;;;;0.32;0.32;;;;;;;20.19;43.83;101379.06;5103518;28;20803;-81
2022/08/30 02:00:27;;;;;;;10.82;0.50;;;;;;;20.16;43.93;101378.38;5154321;28;20023;-81
2022/08/30 02:02:57;;;;;;;0.40;0.40;;;;;;;20.17;43.99;101380.09;5158826;28;20125;-80
2022/08/30 02:05:28;;;;;;;0.43;0.43;;;;;;;20.17;43.50;101380.09;5137686;28;20035;-81
2022/08/30 02:07:59;;;;;;;0.20;0.20;;;;;;;20.10;44.25;101376.91;5137007;28;20047;-80
2022/08/30 02:10:30;;;;;;;0.73;0.70;;;;;;;20.11;43.94;101368.84;5141807;28;20031;-80
2022/08/30 02:13:01;;;;;;;0.38;0.38;;;;;;;20.16;43.67;101378.38;5120560;28;20131;-80
2022/08/30 02:15:35;;;;;;;0.60;0.60;;;;;;;20.16;43.62;101375.69;5122840;28;20035;-80
2022/08/30 02:18:06;;;;;;;0.93;0.93;;;;;;;20.13;43.83;101382.91;5112335;28;20035;-79
2022/08/30 02:20:38;;;;;;;0.75;0.52;;;;;;;20.13;43.94;101384.75;5151278;28;20072;-79
2022/08/30 02:23:09;;;;;;;0.40;0.40;;;;;;;20.12;43.75;101383.84;5156046;28;20058;-79
2022/08/30 02:25:40;;;;;;;0.90;0.55;;;;;;;20.08;43.77;101382.34;5136786;28;20031;-79
2022/08/30 02:28:12;;;;;;;0.22;0.22;;;;;;;20.07;43.84;101382.44;5158913;28;20047;-78
2022/08/30 02:30:43;;;;;;;1.45;1.02;;;;;;;20.05;43.96;101381.66;5154829;28;20520;-79
2022/08/30 02:33:14;;;;;;;0.43;0.43;;;;;;;20.02;44.05;101377.34;5141616;28;20046;-78
2022/08/30 02:35:44;;;;;;;0.45;0.45;;;;;;;20.04;44.08;101371.94;5123846;28;20026;-79
2022/08/30 02:38:15;;;;;;;0.30;0.30;;;;;;;19.97;44.46;101368.75;5123538;28;20057;-78
2022/08/30 02:40:46;;;;;;;0.88;0.47;;;;;;;19.96;44.27;101367.91;5152468;28;20035;-78
2022/08/30 02:43:18;;;;;;;0.95;0.60;;;;;;;19.96;44.45;101367.91;5125353;28;20050;-78
2022/08/30 02:45:49;;;;;;;0.50;0.50;;;;;;;19.94;44.37;101371.59;5105553;29;20689;-78
2022/08/30 02:48:19;;;;;;;0.77;0.75;;;;;;;19.95;44.27;101368.00;5140020;28;20047;-78
2022/08/30 02:50:51;;;;;;;0.30;0.30;;;;;;;19.94;44.33;101364.47;5140904;28;20030;-79
2022/08/30 02:53:22;;;;;;;0.35;0.35;;;;;;;19.94;44.58;101361.81;5098452;28;20039;-79
2022/08/30 02:55:52;;;;;;;0.80;0.47;;;;;;;19.90;44.55;101346.97;5106195;29;20071;-78
2022/08/30 02:58:23;;;;;;;0.70;0.70;;;;;;;19.87;44.51;101346.28;5103124;28;21013;-78
2022/08/30 03:00:54;;;;;;;0.20;0.20;;;;;;;19.85;44.60;101345.50;5150138;28;20068;-79
2022/08/30 03:03:25;;;;;;;0.30;0.30;;;;;;;19.81;44.54;101350.94;5153634;28;20146;-79
2022/08/30 03:06:04;;;;;;;0.20;0.20;;;;;;;19.81;44.43;101352.75;5106394;29;20058;-78
2022/08/30 03:08:35;;;;;;;0.50;0.50;;;;;;;19.77;44.74;101351.19;5136251;28;20043;-78
2022/08/30 03:11:07;;;;;;;1.17;1.00;;;;;;;19.77;44.85;101351.19;5120869;28;20061;-79
2022/08/30 03:13:38;;;;;;;0.60;0.60;;;;;;;19.72;45.02;101342.63;5102218;29;20058;-79
2022/08/30 03:16:08;;;;;;;0.60;0.60;;;;;;;19.69;44.98;101348.09;5135215;28;20400;-78
2022/08/30 03:18:41;;;;;;;1.15;1.05;;;;;;;19.68;45.06;101357.91;5111488;28;20698;-79
2022/08/30 03:21:13;;;;;;;;;;;;;;;19.66;45.01;101352.69;5119048;28;20043;-79
2022/08/30 03:23:44;;;;;;;1.02;1.02;;;;;;;19.68;45.25;101357.91;5137392;28;20685;-79
2022/08/30 03:26:14;;;;;;;0.75;0.52;;;;;;;19.62;45.31;101352.94;5154067;28;20217;-78
2022/08/30 03:28:45;;;;;;;0.75;0.75;;;;;;;19.64;45.06;101351.03;5105201;28;20190;-78
2022/08/30 03:31:16;;;;;;;0.60;0.60;;;;;;;19.60;45.02;101350.34;5136515;28;20039;-78
2022/08/30 03:33:46;;;;;;;0.52;0.52;;;;;;;19.55;45.82;101352.41;5161284;28;20031;-78
2022/08/30 03:36:17;;;;;;;0.85;0.73;;;;;;;19.57;45.46;101349.66;5149703;28;20054;-79
2022/08/30 03:38:47;;;;;;;1.42;1.10;;;;;;;19.56;45.55;101350.59;5122068;28;20037;-78
2022/08/30 03:41:18;;;;;;;0.30;0.30;;;;;;;19.58;45.59;101343.38;5151617;28;20106;-78
2022/08/30 03:43:49;;;;;;;0.45;0.45;;;;;;;19.54;45.70;101345.34;5127879;28;20125;-78
2022/08/30 03:46:20;;;;;;;0.60;0.60;;;;;;;19.56;45.56;101343.47;5158672;28;20034;-78
2022/08/30 03:48:51;;;;;;;0.57;0.57;;;;;;;19.57;45.92;101344.31;5106056;28;20039;-78
2022/08/30 03:51:23;;;;;;;0.60;0.60;;;;;;;19.54;45.98;101344.50;5136539;28;20031;-78
2022/08/30 03:53:54;;;;;;;0.70;0.70;;;;;;;19.54;45.91;101345.34;5118812;28;20055;-78
2022/08/30 03:56:24;;;;;;;0.50;0.50;;;;;;;19.50;46.08;101350.00;5132247;28;20031;-78
2022/08/30 03:58:55;;;;;;;0.20;0.20;;;;;;;19.41;47.38;101355.81;5150426;28;20074;-78
2022/08/30 04:01:26;;;;;;;1.58;1.30;;;;;;;19.45;46.38;101356.50;5097823;28;20039;-78
2022/08/30 04:03:56;;;;;;;0.40;0.40;;;;;;;19.50;46.48;101350.00;5121626;28;20030;-78
2022/08/30 04:06:27;;;;;;;1.45;1.38;;;;;;;19.42;46.58;101362.00;5153267;28;20034;-78
2022/08/30 04:08:57;;;;;;;1.58;0.65;;;;;;;19.40;46.58;101364.75;5137385;28;20046;-79
2022/08/30 04:11:28;;;;;;;0.43;0.43;;;;;;;19.35;46.97;101361.47;5148040;28;20027;-79
2022/08/30 04:13:58;;;;;;;0.20;0.20;;;;;;;19.42;46.48;101362.84;5135493;28;20027;-79
2022/08/30 04:16:29;;;;;;;0.55;0.55;;;;;;;19.40;46.59;101369.22;5140810;28;20038;-79
2022/08/30 04:19:09;;;;;;;1.48;0.80;;;;;;;19.40;46.71;101367.41;5154756;28;20032;-81
2022/08/30 04:21:46;;;;;;;0.57;0.57;;;;;;;19.34;46.90;101365.06;5156319;28;20043;-79
2022/08/30 04:24:17;;;;;;;0.60;0.55;;;;;;;19.36;46.81;101363.19;5140178;28;20096;-80
2022/08/30 04:26:48;;;;;;;0.45;0.45;;;;;;;19.35;46.53;101372.97;5153221;28;20043;-79
2022/08/30 04:29:18;;;;;;;0.30;0.30;;;;;;;19.38;46.87;101371.94;5125346;28;20027;-79
2022/08/30 04:31:49;;;;;;;0.80;0.80;;;;;;;19.37;47.03;101370.25;5136183;28;20121;-78
2022/08/30 04:34:19;;;;;;;1.05;0.98;;;;;;;19.27;47.95;101367.19;5138208;28;20173;-77
2022/08/30 04:36:50;;;;;;;0.98;0.88;;;;;;;19.22;47.93;101366.59;5135649;28;20035;-77
2022/08/30 04:39:20;;;;;;;0.60;0.60;;;;;;;19.27;47.30;101363.69;5119897;28;20045;-77
2022/08/30 04:41:51;;;;;;;0.30;0.30;;;;;;;19.25;47.36;101365.56;5151337;28;20039;-78
2022/08/30 04:44:22;;;;;;;0.20;0.20;;;;;;;19.23;47.24;101362.13;5157295;28;20085;-78
2022/08/30 04:46:53;;;;;;;0.40;0.40;;;;;;;19.19;47.85;101356.09;5152677;28;20053;-77
2022/08/30 04:49:23;;;;;;;0.50;0.50;;;;;;;19.20;47.69;101368.47;5118823;28;20037;-78
2022/08/30 04:51:54;;;;;;;0.57;0.57;;;;;;;19.15;48.99;101374.03;5147713;28;20158;-77
2022/08/30 04:54:25;;;;;;;0.40;0.40;;;;;;;19.16;47.89;101367.78;5153210;28;20599;-77
2022/08/30 04:56:55;;;;;;;3.97;1.45;;;;;;;19.18;47.78;101370.34;5120504;28;20093;-77
2022/08/30 04:59:26;;;;;;;1.40;0.63;;;;;;;19.16;47.80;101380.22;5105062;28;20597;-77
2022/08/30 05:01:56;;;;;;;0.45;0.45;;;;;;;19.14;48.06;101382.94;5113434;28;20709;-77
2022/08/30 05:04:27;;;;;;;0.55;0.55;;;;;;;19.15;48.00;101390.00;5152202;28;20046;-77
2022/08/30 05:06:57;;;;;;;1.48;1.38;;;;;;;19.13;48.01;101383.88;5147737;28;20078;-77
2022/08/30 05:09:30;;;;;;;2.25;1.20;;;;;;;19.16;47.61;101389.06;5155263;28;20529;-77
2022/08/30 05:12:01;;;;;;;2.60;1.15;;;;;;;19.12;48.73;101387.50;5142982;28;20037;-77
2022/08/30 05:14:32;;;;;;;0.90;0.60;;;;;;;19.09;48.19;101395.63;5135967;28;20035;-78
2022/08/30 05:17:06;;;;;;;0.45;0.45;;;;;;;19.14;48.26;101390.06;5141903;28;20047;-80
2022/08/30 05:19:36;;;;;;;1.27;0.90;;;;;;;19.16;48.17;101389.06;5135141;28;20035;-80
2022/08/30 05:22:08;;;;;;;3.15;1.33;;;;;;;19.14;48.30;101395.41;5124187;28;20077;-78
2022/08/30 05:24:39;;;;;;;0.60;0.60;;;;;;;19.10;48.87;101397.38;5171821;28;20034;-80
2022/08/30 05:27:12;;;;;;;6.70;1.10;;;;;;;19.13;48.63;101394.53;5131639;28;20483;-80
2022/08/30 05:29:45;;;;;;;0.50;0.50;;;;;;;19.07;51.84;101399.31;5157061;28;20051;-81
2022/08/30 05:32:17;;;;;;;0.95;0.95;;;;;;;19.03;50.29;101396.81;5136271;28;20048;-80
2022/08/30 05:34:53;;;;;;;0.40;0.40;;;;;;;19.03;49.74;101399.47;5135686;28;20487;-80
2022/08/30 05:37:26;;;;;;;0.93;0.93;;;;;;;19.05;49.95;101398.53;5105821;28;20074;-82
2022/08/30 05:39:58;;;;;;;0.55;0.55;;;;;;;19.04;52.74;101405.66;5135102;28;20522;-80
2022/08/30 05:42:28;;;;;;;0.80;0.73;;;;;;;19.11;50.68;101401.75;5150373;28;20381;-80
2022/08/30 05:45:04;;;;;;;1.50;1.35;;;;;;;19.17;51.46;101406.75;5146562;28;20090;-80
2022/08/30 05:47:35;;;;;;;1.65;1.08;;;;;;;19.08;52.28;101404.56;5172984;28;20090;-78
2022/08/30 05:50:08;;;;;;;0.77;0.77;;;;;;;19.09;51.47;101400.13;5148021;28;20119;-79
2022/08/30 05:52:40;;;;;;;0.30;0.30;;;;;;;19.11;49.97;101404.41;5159964;28;20053;-79
2022/08/30 05:55:13;;;;;;;1.48;1.38;;;;;;;19.05;53.01;101406.50;5088985;28;20035;-78
2022/08/30 05:57:44;;;;;;;0.40;0.40;;;;;;;18.98;53.55;101408.63;5106823;28;20039;-78
2022/08/30 06:00:17;;;;;;;0.68;0.68;;;;;;;19.03;53.45;101409.25;5148039;28;20396;-78
2022/08/30 06:02:52;;;;;;;0.80;0.80;;;;;;;19.02;52.08;101407.53;5130141;28;20629;-79
2022/08/30 06:05:23;;;;;;;10.38;1.00;;;;;;;19.09;51.34;101408.09;5124044;28;20035;-80
2022/08/30 06:07:53;;;;;;;0.98;0.52;;;;;;;19.06;53.10;101409.09;5125836;28;20047;-80
2022/08/30 06:10:24;;;;;;;0.73;0.73;;;;;;;19.05;53.71;101412.69;5097926;28;20023;-79
2022/08/30 06:12:55;;;;;;;0.55;0.55;;;;;;;19.12;51.23;101408.78;5131534;28;20035;-78
2022/08/30 06:15:25;;;;;;;0.50;0.50;;;;;;;19.13;52.70;101415.81;5155002;28;20547;-79
2022/08/30 06:17:56;;;;;;;1.10;0.57;;;;;;;19.13;52.70;101412.28;5109450;28;20043;-80
2022/08/30 06:20:26;;;;;;;3.38;1.00;;;;;;;19.22;51.56;101408.28;5117022;28;20548;-79
2022/08/30 06:22:57;;;;;;;0.43;0.40;;;;;;;19.18;52.25;101403.13;5135299;28;20040;-79
2022/08/30 06:25:28;;;;;;;0.43;0.43;;;;;;;19.18;52.84;101392.50;5119481;28;20033;-78
2022/08/30 06:27:58;;;;;;;0.40;0.40;;;;;;;19.24;53.25;101385.13;5107933;28;20076;-78
2022/08/30 06:30:29;;;;;;;0.30;0.30;;;;;;;19.27;52.75;101395.63;5084982;29;20097;-79
2022/08/30 06:33:03;;;;;;;0.90;0.88;;;;;;;19.25;56.72;101394.81;5128403;28;20111;-78
2022/08/30 06:35:37;;;;;;;0.30;0.30;;;;;;;19.28;53.53;101392.84;5121102;28;20702;-79
2022/08/30 06:38:07;;;;;;;0.82;0.80;;;;;;;19.31;55.69;101397.16;5124109;28;20090;-79
2022/08/30 06:40:38;;;;;;;0.40;0.40;;;;;;;19.31;53.55;101402.47;5131155;28;20439;-78
2022/08/30 06:43:09;;;;;;;0.40;0.40;;;;;;;19.30;55.42;101396.31;5127364;28;20050;-79
2022/08/30 06:45:40;;;;;;;0.80;0.45;;;;;;;19.37;53.35;101401.28;5151466;28;20550;-79
2022/08/30 06:48:13;;;;;;;1.65;1.55;;;;;;;19.38;53.99;101403.88;5137767;28;20038;-79
2022/08/30 06:50:44;;;;;;;0.63;0.63;;;;;;;19.42;53.28;101408.09;5143001;28;20176;-79
2022/08/30 06:53:14;;;;;;;0.50;0.50;;;;;;;19.44;53.88;101406.22;5153287;28;20038;-79
2022/08/30 06:55:54;;;;;;;1.13;0.85;;;;;;;19.50;53.16;101408.53;5129436;28;20034;-79
2022/08/30 06:58:24;;;;;;;0.47;0.47;;;;;;;19.50;53.59;101408.53;5153495;28;20053;-79
2022/08/30 07:00:55;;;;;;;0.85;0.85;;;;;;;19.57;53.29;101400.22;5123094;28;20043;-78
2022/08/30 07:03:26;;;;;;;0.30;0.30;;;;;;;19.76;53.60;101402.72;5155942;28;20043;-79
2022/08/30 07:05:57;;;;;;;0.57;0.57;;;;;;;19.72;52.87;101412.69;5130826;28;20132;-79
2022/08/30 07:08:28;;;;;;;1.00;1.00;;;;;;;19.65;54.82;101409.53;5126548;28;20035;-79
2022/08/30 07:10:58;;;;;;;7.43;2.22;;;;;;;19.67;55.56;101412.09;5158371;28;20158;-79
2022/08/30 07:13:29;;;;;;;0.20;0.20;;;;;;;19.66;55.84;101413.03;5109187;28;20036;-79
2022/08/30 07:15:59;;;;;;;0.52;0.43;;;;;;;19.75;53.73;101404.53;5139409;28;20027;-79
2022/08/30 07:21:30;;;;;;;17.20;1.85;;;;;;;19.87;54.93;101407.53;5154747;28;20138;-79
2022/08/30 07:24:03;;;;;;;0.30;0.30;;;;;;;19.90;55.32;101407.34;5137241;28;20085;-79
2022/08/30 07:26:40;;;;;;;6.68;1.48;;;;;;;19.92;54.42;101403.63;5140377;28;20034;-79
2022/08/30 07:29:11;;;;;;;0.85;0.82;;;;;;;19.99;54.11;101406.81;5160746;28;20425;-80
2022/08/30 07:31:42;;;;;;;0.70;0.70;;;;;;;20.07;53.99;101401.06;5158972;28;20542;-79
2022/08/30 07:34:13;;;;;;;0.75;0.75;;;;;;;20.06;55.13;101399.34;5137813;28;20125;-79
2022/08/30 07:36:43;;;;;;;0.50;0.50;;;;;;;20.21;54.26;101398.47;5107714;28;20054;-79
2022/08/30 07:39:14;;;;;;;0.40;0.40;;;;;;;20.17;54.44;101404.06;5137785;28;20058;-79
2022/08/30 07:41:44;;;;;;;0.30;0.30;;;;;;;20.21;54.42;101398.47;5142241;28;20667;-78
2022/08/30 07:44:16;;;;;;;0.80;0.47;;;;;;;20.23;54.39;101406.38;5134124;28;20528;-78
2022/08/30 07:46:46;;;;;;;0.40;0.40;;;;;;;20.37;53.92;101409.09;5143561;28;20047;-79
2022/08/30 07:49:18;;;;;;;0.40;0.40;;;;;;;20.40;53.90;101400.94;5130096;28;20058;-78
2022/08/30 07:51:49;;;;;;;3.45;1.67;;;;;;;20.43;53.54;101414.09;5123103;28;20129;-79
2022/08/30 07:54:19;;;;;;;3.72;1.08;;;;;;;20.55;53.66;101412.53;5171471;28;20039;-78
2022/08/30 07:56:53;;;;;;;0.40;0.40;;;;;;;20.60;53.62;101414.94;5123128;28;20420;-77
2022/08/30 07:59:24;;;;;;;3.60;1.20;;;;;;;20.59;53.47;101414.03;5139960;28;20523;-77
2022/08/30 08:01:54;;;;;;;1.00;0.63;;;;;;;20.72;53.20;101413.34;5149013;28;20050;-79
2022/08/30 08:04:25;;;;;;;0.28;0.28;;;;;;;20.73;53.49;101413.28;5136191;28;20212;-78
2022/08/30 08:06:55;;;;;;;0.30;0.30;;;;;;;20.74;53.05;101412.31;5137231;28;20090;-78
2022/08/30 08:09:26;;;;;;;0.52;0.52;;;;;;;20.80;53.42;101418.22;5136400;28;20463;-78
2022/08/30 08:11:56;;;;;;;0.43;0.43;;;;;;;20.89;53.15;101415.91;5121154;28;20526;-79
2022/08/30 08:14:27;;;;;;;1.75;1.58;;;;;;;20.94;53.64;101422.75;5106905;28;20038;-78
2022/08/30 08:16:58;;;;;;;1.27;1.17;;;;;;;21.09;52.66;101411.16;5125979;28;20087;-78
2022/08/30 08:19:29;;;;;;;2.33;1.55;;;;;;;21.15;52.62;101409.94;5148071;28;20126;-78
2022/08/30 08:22:00;;;;;;;1.75;1.02;;;;;;;21.17;52.59;101418.72;5104846;28;20126;-79
2022/08/30 08:24:33;;;;;;;0.40;0.40;;;;;;;21.21;52.46;101422.88;5158317;28;20031;-78
2022/08/30 08:27:04;;;;;;;0.47;0.47;;;;;;;21.30;52.42;101413.47;5139155;28;20149;-79
2022/08/30 08:29:35;;;;;;;2.88;0.55;;;;;;;21.36;51.98;101407.75;5171266;28;20126;-79
2022/08/30 08:32:08;;;;;;;0.55;0.43;;;;;;;21.47;51.56;101415.09;5153517;28;20268;-79
2022/08/30 08:34:40;;;;;;;0.40;0.40;;;;;;;21.51;51.68;101408.63;5142069;28;20039;-80
2022/08/30 08:37:10;;;;;;;1.10;0.88;;;;;;;21.54;51.78;101405.75;5117006;28;20039;-79
2022/08/30 08:39:41;;;;;;;0.57;0.57;;;;;;;21.62;51.27;101407.97;5122301;28;20041;-80
2022/08/30 08:42:30;;;;;;;1.05;0.95;;;;;;;21.67;50.98;101411.19;5133603;28;20036;-78
2022/08/30 08:45:16;;;;;;;0.22;0.22;;;;;;;21.66;51.01;101410.34;5106691;29;20035;-78
2022/08/30 08:48:33;;;;;;;0.43;0.35;;;;;;;21.74;50.83;101411.69;5135788;28;20098;-79
2022/08/30 08:54:07;;;;;;;0.30;0.30;;;;;;;21.91;49.90;101400.78;5134302;28;20122;-80
2022/08/30 08:56:45;;;;;;;0.30;0.30;;;;;;;21.98;49.69;101410.09;5116274;28;20039;-78
2022/08/30 08:59:16;;;;;;;0.38;0.38;;;;;;;21.97;49.96;101408.38;5166434;28;20271;-78
2022/08/30 09:01:49;;;;;;;0.60;0.60;;;;;;;22.06;49.65;101395.41;5129472;28;20094;-78
2022/08/30 09:04:28;;;;;;;1.48;1.38;;;;;;;22.08;49.98;101399.69;5149840;28;20034;-78
2022/08/30 09:07:04;;;;;;;3.25;1.00;;;;;;;22.13;50.02;101402.03;5152290;28;20419;-78
2022/08/30 09:09:38;;;;;;;0.30;0.30;;;;;;;22.13;49.43;101402.91;5169374;28;20031;-77
2022/08/30 09:12:11;;;;;;;0.50;0.50;;;;;;;22.18;49.70;101399.94;5117189;28;20509;-78
2022/08/30 09:14:54;;;;;;;0.50;0.50;;;;;;;22.20;49.94;101392.66;5121010;28;20031;-78
2022/08/30 09:17:25;;;;;;;2.08;1.00;;;;;;;22.24;49.93;101402.22;5148681;28;20130;-78
2022/08/30 09:19:55;;;;;;;0.30;0.30;;;;;;;22.40;48.86;101399.41;5155064;28;20114;-78
2022/08/30 09:22:39;;;;;;;0.38;0.38;;;;;;;22.34;49.52;101394.44;5136445;28;20118;-77
2022/08/30 09:25:13;;;;;;;0.35;0.35;;;;;;;22.44;48.80;101406.28;5138023;28;20030;-78
2022/08/30 09:27:45;;;;;;;1.55;1.02;;;;;;;22.44;47.62;101400.91;5152724;28;20055;-80
2022/08/30 09:30:18;;;;;;;;;;;;;;;22.49;48.59;101397.94;5134511;28;20038;-78
2022/08/30 09:32:53;;;;;;;0.80;0.80;;;;;;;22.63;47.60;101395.19;5136518;28;19968;-77
2022/08/30 09:35:25;;;;;;;0.75;0.75;;;;;;;22.58;48.46;101391.97;5156440;28;20038;-78
2022/08/30 09:38:04;;;;;;;0.30;0.30;;;;;;;22.57;48.00;101398.28;5120930;28;20039;-79
2022/08/30 09:40:52;;;;;;;0.43;0.32;;;;;;;22.66;47.64;101394.13;5124929;28;20803;-79
2022/08/30 09:43:27;;;;;;;2.30;0.85;;;;;;;22.64;47.72;101388.88;5102952;28;20070;-79
2022/08/30 09:45:58;;;;;;;2.00;0.98;;;;;;;22.67;48.18;101389.66;5171880;28;20043;-79
2022/08/30 09:48:42;;;;;;;0.40;0.32;;;;;;;22.75;47.73;101393.50;5154300;28;20511;-79
2022/08/30 09:51:27;;;;;;;0.30;0.30;;;;;;;22.75;47.20;101389.97;5141562;28;20114;-78
2022/08/30 09:54:10;;;;;;;0.70;0.70;;;;;;;22.75;47.50;101384.63;5123972;28;20541;-79
2022/08/30 09:57:05;;;;;;;0.38;0.38;;;;;;;22.87;47.42;101388.28;5108665;28;20138;-78
2022/08/30 09:59:40;;;;;;;0.57;0.55;;;;;;;;;;5154784;28;20031;-78
2022/08/30 10:02:38;;;;;;;0.52;0.52;;;;;;;22.86;47.12;101379.38;5152552;28;20081;-78
2022/08/30 10:05:35;;;;;;;0.93;0.93;;;;;;;22.96;46.73;101393.00;5140271;28;20057;-77
2022/08/30 10:08:24;;;;;;;0.50;0.50;;;;;;;23.00;47.13;101386.47;5134132;28;20609;-78
2022/08/30 10:11:02;;;;;;;0.98;0.73;;;;;;;23.04;46.41;101387.09;5153586;28;20082;-79
2022/08/30 10:13:47;;;;;;;0.68;0.68;;;;;;;23.10;46.62;101392.03;5151761;28;20054;-79
2022/08/30 10:16:28;;;;;;;0.45;0.45;;;;;;;23.21;46.03;101380.63;5136104;28;20106;-79
2022/08/30 10:19:19;;;;;;;0.25;0.25;;;;;;;23.30;46.88;101379.09;5125672;28;20758;-79
2022/08/30 10:22:00;;;;;;;0.32;0.32;;;;;;;23.33;46.81;101381.56;5143473;28;20051;-79
2022/08/30 10:24:39;;;;;;;0.73;0.55;;;;;;;23.43;46.36;101382.59;5122030;28;20050;-79
2022/08/30 10:27:25;;;;;;;0.40;0.40;;;;;;;23.54;45.77;101382.72;5155311;28;20421;-78
2022/08/30 10:30:06;;;;;;;0.63;0.63;;;;;;;23.55;45.90;101387.09;5136956;28;20081;-79
2022/08/30 10:32:47;;;;;;;0.50;0.50;;;;;;;23.69;45.30;101382.56;5126342;28;20102;-79
2022/08/30 10:35:26;;;;;;;0.50;0.50;;;;;;;23.78;44.83;101371.19;5135512;28;20409;-79
2022/08/30 10:38:10;;;;;;;0.80;0.73;;;;;;;23.77;45.18;101372.16;5104475;28;20050;-81
2022/08/30 10:43:47;;;;;;;0.50;0.50;;;;;;;23.99;44.26;101371.47;5136635;28;20110;-78
2022/08/30 10:46:48;;;;;;;0.40;0.40;;;;;;;23.99;44.39;101373.31;5121211;28;20035;-81
2022/08/30 10:49:27;;;;;;;0.40;0.40;;;;;;;24.16;44.56;101372.91;5145152;28;20130;-82
2022/08/30 10:52:10;;;;;;;0.30;0.30;;;;;;;24.18;43.14;101362.91;5140573;28;20646;-79
2022/08/30 10:54:49;;;;;;;;;;;;;;;24.17;43.39;101365.69;5160151;28;20063;-79
2022/08/30 10:57:20;;;;;;;0.28;0.28;;;;;;;24.16;43.77;101369.34;5125410;28;19978;-79
2022/08/30 11:00:31;;;;;;;0.47;0.47;;;;;;;24.26;42.66;101364.16;5143414;28;20038;-78
2022/08/30 11:03:20;;;;;;;0.55;0.55;;;;;;;24.25;43.37;101362.47;5141498;28;20113;-78
2022/08/30 11:06:20;;;;;;;0.20;0.20;;;;;;;24.35;43.95;101358.97;5135949;28;20451;-78
2022/08/30 11:08:58;;;;;;;0.30;0.30;;;;;;;24.50;43.27;101351.56;5143051;28;20468;-78
2022/08/30 11:12:16;;;;;;;0.25;0.25;;;;;;;24.56;42.52;101354.75;5153382;28;20158;-77
2022/08/30 11:14:47;;;;;;;0.55;0.55;;;;;;;24.62;43.01;101359.66;5114886;28;20043;-77
2022/08/30 11:17:32;;;;;;;0.40;0.40;;;;;;;24.65;42.63;101356.75;5174460;28;20457;-77
2022/08/30 11:20:43;;;;;;;0.73;0.73;;;;;;;24.71;42.47;101353.63;5130145;28;20027;-78
2022/08/30 11:23:28;;;;;;;7.03;1.42;;;;;;;24.78;41.96;101349.47;5147036;28;20030;-77
2022/08/30 11:26:10;;;;;;;0.30;0.30;;;;;;;24.80;41.09;101363.63;5122103;28;20498;-77
2022/08/30 11:28:44;;;;;;;0.30;0.30;;;;;;;24.86;41.76;101356.94;5169278;28;20470;-79
2022/08/30 11:31:17;;;;;;;0.63;0.63;;;;;;;24.97;41.33;101353.41;5123977;28;20034;-78
2022/08/30 11:33:58;;;;;;;0.20;0.20;;;;;;;24.95;41.81;101360.72;5155121;28;20046;-78
2022/08/30 11:36:28;;;;;;;0.50;0.50;;;;;;;24.96;42.02;101357.91;5179133;28;20054;-78
2022/08/30 11:39:31;;;;;;;0.40;0.40;;;;;;;25.09;41.60;101360.50;5127541;28;20031;-78
2022/08/30 11:42:23;;;;;;;0.65;0.65;;;;;;;25.10;41.32;101354.16;5127159;28;20047;-78
2022/08/30 11:45:22;;;;;;;1.38;1.08;;;;;;;25.16;41.98;101354.66;5133812;28;20039;-78
2022/08/30 11:48:06;;;;;;;0.35;0.35;;;;;;;25.22;40.49;101349.63;5133846;28;20030;-78
2022/08/30 11:51:04;;;;;;;0.45;0.45;;;;;;;25.31;40.07;101356.13;5153801;28;20051;-78
2022/08/30 11:53:52;;;;;;;1.70;0.60;;;;;;;25.41;39.50;101349.03;5161052;28;20041;-79
2022/08/30 11:56:47;;;;;;;0.40;0.40;;;;;;;25.36;40.27;101348.53;5141441;28;20070;-80
2022/08/30 11:59:34;;;;;;;0.30;0.30;;;;;;;25.43;39.94;101340.88;5135811;28;20054;-80
2022/08/30 12:02:08;;;;;;;0.30;0.30;;;;;;;25.44;40.77;101340.75;5151486;28;20054;-80
2022/08/30 12:04:44;;;;;;;0.35;0.35;;;;;;;25.53;40.77;101338.28;5169283;28;20050;-80
2022/08/30 12:07:53;;;;;;;0.32;0.32;;;;;;;25.59;40.71;101340.47;5154591;28;20039;-80
2022/08/30 12:10:36;;;;;;;0.82;0.45;;;;;;;25.63;40.66;101338.38;5135986;28;20137;-80